sensor_id;sensor_type;location;lat;lon;timestamp;pressure;altitude;pressure_sealevel;temperature
40047;BMP280;31510;48.122;11.576;2022-08-01T00:00:22;95625.75;;;21.74
40047;BMP280;31510;48.122;11.576;2022-08-01T00:02:48;95624.25;;;21.73
40047;BMP280;31510;48.122;11.576;2022-08-01T00:05:13;95624.75;;;21.71
40047;BMP280;31510;48.122;11.576;2022-08-01T00:07:39;95628.22;;;21.72
40047;BMP280;31510;48.122;11.576;2022-08-01T00:10:07;95625.28;;;21.70
40047;BMP280;31510;48.122;11.576;2022-08-01T00:12:33;95634.16;;;21.70
40047;BMP280;31510;48.122;11.576;2022-08-01T00:14:58;95633.91;;;21.68
40047;BMP280;31510;48.122;11.576;2022-08-01T00:17:23;95636.63;;;21.68
40047;BMP280;31510;48.122;11.576;2022-08-01T00:19:49;95629.75;;;21.67
40047;BMP280;31510;48.122;11.576;2022-08-01T00:22:14;95640.91;;;21.64
40047;BMP280;31510;48.122;11.576;2022-08-01T00:24:39;95635.75;;;21.61
40047;BMP280;31510;48.122;11.576;2022-08-01T00:27:05;95639.25;;;21.56
40047;BMP280;31510;48.122;11.576;2022-08-01T00:29:30;95635.38;;;21.51
40047;BMP280;31510;48.122;11.576;2022-08-01T00:31:55;95631.69;;;21.49
40047;BMP280;31510;48.122;11.576;2022-08-01T00:34:21;95633.66;;;21.48
40047;BMP280;31510;48.122;11.576;2022-08-01T00:36:46;95633.16;;;21.50
40047;BMP280;31510;48.122;11.576;2022-08-01T00:39:12;95643.50;;;21.51
40047;BMP280;31510;48.122;11.576;2022-08-01T00:41:37;95638.31;;;21.53
40047;BMP280;31510;48.122;11.576;2022-08-01T00:44:06;95643.72;;;21.53
40047;BMP280;31510;48.122;11.576;2022-08-01T00:46:32;95639.53;;;21.52
40047;BMP280;31510;48.122;11.576;2022-08-01T00:48:58;95641.53;;;21.52
40047;BMP280;31510;48.122;11.576;2022-08-01T00:51:24;95641.53;;;21.52
40047;BMP280;31510;48.122;11.576;2022-08-01T00:53:50;95644.47;;;21.54
40047;BMP280;31510;48.122;11.576;2022-08-01T00:56:16;95641.97;;;21.56
40047;BMP280;31510;48.122;11.576;2022-08-01T00:58:42;95638.75;;;21.57
40047;BMP280;31510;48.122;11.576;2022-08-01T01:01:07;95638.25;;;21.59
40047;BMP280;31510;48.122;11.576;2022-08-01T01:03:33;95629.88;;;21.57
40047;BMP280;31510;48.122;11.576;2022-08-01T01:06:11;95635.59;;;21.53
40047;BMP280;31510;48.122;11.576;2022-08-01T01:08:42;95644.03;;;21.50
40047;BMP280;31510;48.122;11.576;2022-08-01T01:11:23;95643.56;;;21.46
40047;BMP280;31510;48.122;11.576;2022-08-01T01:13:55;95632.25;;;21.42
40047;BMP280;31510;48.122;11.576;2022-08-01T01:16:24;95641.88;;;21.43
40047;BMP280;31510;48.122;11.576;2022-08-01T01:18:53;95645.31;;;21.43
40047;BMP280;31510;48.122;11.576;2022-08-01T01:32:04;95641.91;;;21.37
40047;BMP280;31510;48.122;11.576;2022-08-01T01:34:32;95649.28;;;21.37
40047;BMP280;31510;48.122;11.576;2022-08-01T01:37:01;95648.56;;;21.36
40047;BMP280;31510;48.122;11.576;2022-08-01T01:39:28;95653.25;;;21.36
40047;BMP280;31510;48.122;11.576;2022-08-01T01:41:55;95653.25;;;21.36
40047;BMP280;31510;48.122;11.576;2022-08-01T01:44:21;95652.31;;;21.33
40047;BMP280;31510;48.122;11.576;2022-08-01T01:46:48;95653.81;;;21.29
40047;BMP280;31510;48.122;11.576;2022-08-01T01:49:15;95649.91;;;21.24
40047;BMP280;31510;48.122;11.576;2022-08-01T01:51:43;95651.66;;;21.22
40047;BMP280;31510;48.122;11.576;2022-08-01T01:54:09;95650.94;;;21.22
40047;BMP280;31510;48.122;11.576;2022-08-01T01:56:35;95661.78;;;21.22
40047;BMP280;31510;48.122;11.576;2022-08-01T01:59:15;95660.03;;;21.24
40047;BMP280;31510;48.122;11.576;2022-08-01T02:01:42;95651.38;;;21.25
40047;BMP280;31510;48.122;11.576;2022-08-01T02:04:08;95651.59;;;21.27
40047;BMP280;31510;48.122;11.576;2022-08-01T02:06:34;95649.63;;;21.28
40047;BMP280;31510;48.122;11.576;2022-08-01T02:09:02;95648.44;;;21.23
40047;BMP280;31510;48.122;11.576;2022-08-01T02:11:27;95662.50;;;21.22
40047;BMP280;31510;48.122;11.576;2022-08-01T02:13:58;95655.59;;;21.21
40047;BMP280;31510;48.122;11.576;2022-08-01T02:16:29;95657.09;;;21.22
40047;BMP280;31510;48.122;11.576;2022-08-01T02:18:55;95656.81;;;21.25
40047;BMP280;31510;48.122;11.576;2022-08-01T02:21:28;95662.94;;;21.26
40047;BMP280;31510;48.122;11.576;2022-08-01T02:24:00;95662.94;;;21.26
40047;BMP280;31510;48.122;11.576;2022-08-01T02:26:28;95674.78;;;21.28
40047;BMP280;31510;48.122;11.576;2022-08-01T02:28:57;95665.16;;;21.27
40047;BMP280;31510;48.122;11.576;2022-08-01T02:31:24;95671.09;;;21.26
40047;BMP280;31510;48.122;11.576;2022-08-01T02:33:57;95663.47;;;21.24
40047;BMP280;31510;48.122;11.576;2022-08-01T02:36:25;95662.72;;;21.24
40047;BMP280;31510;48.122;11.576;2022-08-01T02:38:52;95665.44;;;21.24
40047;BMP280;31510;48.122;11.576;2022-08-01T02:41:20;95665.94;;;21.22
40047;BMP280;31510;48.122;11.576;2022-08-01T02:43:48;95669.41;;;21.23
40047;BMP280;31510;48.122;11.576;2022-08-01T02:46:22;95665.22;;;21.22
40047;BMP280;31510;48.122;11.576;2022-08-01T02:48:52;95672.63;;;21.22
40047;BMP280;31510;48.122;11.576;2022-08-01T02:51:18;95670.63;;;21.22
40047;BMP280;31510;48.122;11.576;2022-08-01T02:53:46;95668.66;;;21.22
40047;BMP280;31510;48.122;11.576;2022-08-01T02:56:13;95670.13;;;21.23
40047;BMP280;31510;48.122;11.576;2022-08-01T02:58:39;95676.78;;;21.22
40047;BMP280;31510;48.122;11.576;2022-08-01T03:01:06;95679.50;;;21.22
40047;BMP280;31510;48.122;11.576;2022-08-01T03:03:33;95678.03;;;21.22
40047;BMP280;31510;48.122;11.576;2022-08-01T03:05:59;95679.06;;;21.19
40047;BMP280;31510;48.122;11.576;2022-08-01T03:08:25;95678.84;;;21.17
40047;BMP280;31510;48.122;11.576;2022-08-01T03:10:52;95671.69;;;21.14
40047;BMP280;31510;48.122;11.576;2022-08-01T03:13:20;95680.09;;;21.10
40047;BMP280;31510;48.122;11.576;2022-08-01T03:15:47;95674.47;;;21.08
40047;BMP280;31510;48.122;11.576;2022-08-01T03:18:14;95683.31;;;21.09
40047;BMP280;31510;48.122;11.576;2022-08-01T03:20:41;95677.16;;;21.08
40047;BMP280;31510;48.122;11.576;2022-08-01T03:23:10;95680.38;;;21.07
40047;BMP280;31510;48.122;11.576;2022-08-01T03:25:39;95679.66;;;21.06
40047;BMP280;31510;48.122;11.576;2022-08-01T03:28:06;95682.88;;;21.05
40047;BMP280;31510;48.122;11.576;2022-08-01T03:30:32;95685.56;;;21.05
40047;BMP280;31510;48.122;11.576;2022-08-01T03:32:58;95680.44;;;21.01
40047;BMP280;31510;48.122;11.576;2022-08-01T03:35:29;95686.59;;;21.02
40047;BMP280;31510;48.122;11.576;2022-08-01T03:37:55;95679.94;;;21.03
40047;BMP280;31510;48.122;11.576;2022-08-01T03:40:36;95681.19;;;21.02
40047;BMP280;31510;48.122;11.576;2022-08-01T03:43:05;95690.78;;;21.03
40047;BMP280;31510;48.122;11.576;2022-08-01T03:45:35;95686.59;;;21.02
40047;BMP280;31510;48.122;11.576;2022-08-01T03:48:06;95691.28;;;21.01
40047;BMP280;31510;48.122;11.576;2022-08-01T03:50:34;95688.09;;;20.97
40047;BMP280;31510;48.122;11.576;2022-08-01T03:53:02;95697.47;;;20.96
40047;BMP280;31510;48.122;11.576;2022-08-01T03:55:28;95701.94;;;20.94
40047;BMP280;31510;48.122;11.576;2022-08-01T03:57:55;95709.34;;;20.93
40047;BMP280;31510;48.122;11.576;2022-08-01T04:00:22;95707.34;;;20.94
40047;BMP280;31510;48.122;11.576;2022-08-01T04:02:49;95704.66;;;20.94
40047;BMP280;31510;48.122;11.576;2022-08-01T04:05:16;95705.38;;;20.94
40047;BMP280;31510;48.122;11.576;2022-08-01T04:07:45;95711.56;;;20.95
40047;BMP280;31510;48.122;11.576;2022-08-01T04:10:12;95716.97;;;20.95
40047;BMP280;31510;48.122;11.576;2022-08-01T04:12:37;95710.06;;;20.94
40047;BMP280;31510;48.122;11.576;2022-08-01T04:15:04;95717.47;;;20.93
40047;BMP280;31510;48.122;11.576;2022-08-01T04:17:29;95717.75;;;20.90
40047;BMP280;31510;48.122;11.576;2022-08-01T04:19:54;95712.81;;;20.88
40047;BMP280;31510;48.122;11.576;2022-08-01T04:22:20;95718.47;;;20.90
40047;BMP280;31510;48.122;11.576;2022-08-01T04:24:47;95720.94;;;20.88
40047;BMP280;31510;48.122;11.576;2022-08-01T04:27:18;95731.28;;;20.90
40047;BMP280;31510;48.122;11.576;2022-08-01T04:29:46;95727.09;;;20.89
40047;BMP280;31510;48.122;11.576;2022-08-01T04:32:13;95740.66;;;20.89
40047;BMP280;31510;48.122;11.576;2022-08-01T04:34:41;95732.53;;;20.89
40047;BMP280;31510;48.122;11.576;2022-08-01T04:37:09;95740.66;;;20.89
40047;BMP280;31510;48.122;11.576;2022-08-01T04:39:36;95736.47;;;20.88
40047;BMP280;31510;48.122;11.576;2022-08-01T04:42:04;95742.63;;;20.88
40047;BMP280;31510;48.122;11.576;2022-08-01T04:44:29;95739.19;;;20.88
40047;BMP280;31510;48.122;11.576;2022-08-01T04:47:01;95746.06;;;20.89
40047;BMP280;31510;48.122;11.576;2022-08-01T04:49:32;95745.84;;;20.87
40047;BMP280;31510;48.122;11.576;2022-08-01T04:51:57;95745.13;;;20.86
40047;BMP280;31510;48.122;11.576;2022-08-01T04:54:29;95755.22;;;20.86
40047;BMP280;31510;48.122;11.576;2022-08-01T04:56:58;95746.34;;;20.85
40047;BMP280;31510;48.122;11.576;2022-08-01T04:59:28;95755.22;;;20.86
40047;BMP280;31510;48.122;11.576;2022-08-01T05:04:32;95753.47;;;20.88
40047;BMP280;31510;48.122;11.576;2022-08-01T05:06:57;95749.50;;;20.89
40047;BMP280;31510;48.122;11.576;2022-08-01T05:09:22;95748.50;;;20.92
40047;BMP280;31510;48.122;11.576;2022-08-01T05:11:48;95749.25;;;20.93
40047;BMP280;31510;48.122;11.576;2022-08-01T05:14:13;95758.84;;;20.94
40047;BMP280;31510;48.122;11.576;2022-08-01T05:16:38;95760.34;;;20.95
40047;BMP280;31510;48.122;11.576;2022-08-01T05:19:04;95755.66;;;20.95
40047;BMP280;31510;48.122;11.576;2022-08-01T05:21:29;95753.16;;;20.97
40047;BMP280;31510;48.122;11.576;2022-08-01T05:23:54;95766.44;;;21.01
40047;BMP280;31510;48.122;11.576;2022-08-01T05:26:20;95758.03;;;21.04
40047;BMP280;31510;48.122;11.576;2022-08-01T05:28:45;95752.13;;;21.06
40047;BMP280;31510;48.122;11.576;2022-08-01T05:31:11;95761.72;;;21.07
40047;BMP280;31510;48.122;11.576;2022-08-01T05:33:36;95758.72;;;21.10
40047;BMP280;31510;48.122;11.576;2022-08-01T05:36:01;95758.97;;;21.12
40047;BMP280;31510;48.122;11.576;2022-08-01T05:38:27;95764.09;;;21.16
40047;BMP280;31510;48.122;11.576;2022-08-01T05:40:52;95772.72;;;21.20
40047;BMP280;31510;48.122;11.576;2022-08-01T05:43:17;95757.63;;;21.24
40047;BMP280;31510;48.122;11.576;2022-08-01T05:45:42;95769.94;;;21.30
40047;BMP280;31510;48.122;11.576;2022-08-01T05:48:09;95776.03;;;21.36
40047;BMP280;31510;48.122;11.576;2022-08-01T05:50:35;95780.94;;;21.38
40047;BMP280;31510;48.122;11.576;2022-08-01T05:53:00;95773.31;;;21.36
40047;BMP280;31510;48.122;11.576;2022-08-01T05:55:25;95776.31;;;21.33
40047;BMP280;31510;48.122;11.576;2022-08-01T05:57:50;95784.66;;;21.35
40047;BMP280;31510;48.122;11.576;2022-08-01T06:00:16;95768.88;;;21.39
40047;BMP280;31510;48.122;11.576;2022-08-01T06:02:42;95786.13;;;21.41
40047;BMP280;31510;48.122;11.576;2022-08-01T06:05:08;95779.19;;;21.46
40047;BMP280;31510;48.122;11.576;2022-08-01T06:07:34;95788.53;;;21.50
40047;BMP280;31510;48.122;11.576;2022-08-01T06:09:59;95788.97;;;21.54
40047;BMP280;31510;48.122;11.576;2022-08-01T06:12:24;95782.03;;;21.59
40047;BMP280;31510;48.122;11.576;2022-08-01T06:14:49;95789.19;;;21.62
40047;BMP280;31510;48.122;11.576;2022-08-01T06:17:15;95782.22;;;21.66
40047;BMP280;31510;48.122;11.576;2022-08-01T06:19:40;95788.31;;;21.72
40047;BMP280;31510;48.122;11.576;2022-08-01T06:22:05;95795.69;;;21.77
40047;BMP280;31510;48.122;11.576;2022-08-01T06:24:31;95791.44;;;21.81
40047;BMP280;31510;48.122;11.576;2022-08-01T06:26:56;95790.66;;;21.86
40047;BMP280;31510;48.122;11.576;2022-08-01T06:29:21;95791.13;;;21.90
40047;BMP280;31510;48.122;11.576;2022-08-01T06:31:46;95783.19;;;21.92
40047;BMP280;31510;48.122;11.576;2022-08-01T06:34:12;95793.03;;;21.95
40047;BMP280;31510;48.122;11.576;2022-08-01T06:36:37;95792.47;;;22.02
40047;BMP280;31510;48.122;11.576;2022-08-01T06:39:03;95803.78;;;22.06
40047;BMP280;31510;48.122;11.576;2022-08-01T06:41:28;95804.22;;;22.10
40047;BMP280;31510;48.122;11.576;2022-08-01T06:43:53;95798.00;;;22.15
40047;BMP280;31510;48.122;11.576;2022-08-01T06:46:19;95791.59;;;22.18
40047;BMP280;31510;48.122;11.576;2022-08-01T06:48:44;95794.53;;;22.20
40047;BMP280;31510;48.122;11.576;2022-08-01T06:51:09;95793.28;;;22.21
40047;BMP280;31510;48.122;11.576;2022-08-01T06:53:38;95791.31;;;22.21
40047;BMP280;31510;48.122;11.576;2022-08-01T06:56:04;95796.00;;;22.21
40047;BMP280;31510;48.122;11.576;2022-08-01T06:58:30;95782.88;;;22.25
40047;BMP280;31510;48.122;11.576;2022-08-01T07:00:55;95797.41;;;22.27
40047;BMP280;31510;48.122;11.576;2022-08-01T07:03:20;95793.13;;;22.32
40047;BMP280;31510;48.122;11.576;2022-08-01T07:05:46;95791.63;;;22.36
40047;BMP280;31510;48.122;11.576;2022-08-01T07:08:11;95789.56;;;22.42
40047;BMP280;31510;48.122;11.576;2022-08-01T07:10:36;95785.53;;;22.48
40047;BMP280;31510;48.122;11.576;2022-08-01T07:13:01;95793.34;;;22.57
40047;BMP280;31510;48.122;11.576;2022-08-01T07:15:27;95796.69;;;22.63
40047;BMP280;31510;48.122;11.576;2022-08-01T07:17:52;95791.72;;;22.67
40047;BMP280;31510;48.122;11.576;2022-08-01T07:20:18;95795.63;;;22.72
40047;BMP280;31510;48.122;11.576;2022-08-01T07:22:43;95790.63;;;22.76
40047;BMP280;31510;48.122;11.576;2022-08-01T07:25:09;95785.41;;;22.78
40047;BMP280;31510;48.122;11.576;2022-08-01T07:27:34;95787.09;;;22.81
40047;BMP280;31510;48.122;11.576;2022-08-01T07:30:00;95777.69;;;22.82
40047;BMP280;31510;48.122;11.576;2022-08-01T07:32:25;95788.50;;;22.87
40047;BMP280;31510;48.122;11.576;2022-08-01T07:34:51;95778.28;;;22.93
40047;BMP280;31510;48.122;11.576;2022-08-01T07:37:16;95777.47;;;22.98
40047;BMP280;31510;48.122;11.576;2022-08-01T07:39:42;95776.47;;;23.01
40047;BMP280;31510;48.122;11.576;2022-08-01T07:42:07;95780.88;;;23.04
40047;BMP280;31510;48.122;11.576;2022-08-01T07:44:33;95777.63;;;23.05
40047;BMP280;31510;48.122;11.576;2022-08-01T07:46:58;95775.88;;;23.08
40047;BMP280;31510;48.122;11.576;2022-08-01T07:49:23;95778.50;;;23.13
40047;BMP280;31510;48.122;11.576;2022-08-01T07:51:49;95775.47;;;23.17
40047;BMP280;31510;48.122;11.576;2022-08-01T07:54:14;95776.22;;;23.17
40047;BMP280;31510;48.122;11.576;2022-08-01T07:56:39;95775.91;;;23.21
40047;BMP280;31510;48.122;11.576;2022-08-01T07:59:05;95782.00;;;23.26
40047;BMP280;31510;48.122;11.576;2022-08-01T08:01:30;95780.44;;;23.31
40047;BMP280;31510;48.122;11.576;2022-08-01T08:03:55;95778.38;;;23.37
40047;BMP280;31510;48.122;11.576;2022-08-01T08:06:21;95784.97;;;23.41
40047;BMP280;31510;48.122;11.576;2022-08-01T08:08:47;95791.81;;;23.48
40047;BMP280;31510;48.122;11.576;2022-08-01T08:11:12;95781.34;;;23.52
40047;BMP280;31510;48.122;11.576;2022-08-01T08:13:37;95765.44;;;23.56
40047;BMP280;31510;48.122;11.576;2022-08-01T08:16:03;95768.81;;;23.62
40047;BMP280;31510;48.122;11.576;2022-08-01T08:18:28;95774.50;;;23.64
40047;BMP280;31510;48.122;11.576;2022-08-01T08:20:53;95772.72;;;23.66
40047;BMP280;31510;48.122;11.576;2022-08-01T08:23:19;95768.00;;;23.66
40047;BMP280;31510;48.122;11.576;2022-08-01T08:26:02;95765.50;;;23.68
40047;BMP280;31510;48.122;11.576;2022-08-01T08:28:28;95768.22;;;23.68
40047;BMP280;31510;48.122;11.576;2022-08-01T08:30:53;95763.94;;;23.73
40047;BMP280;31510;48.122;11.576;2022-08-01T08:33:20;95760.38;;;23.78
40047;BMP280;31510;48.122;11.576;2022-08-01T08:35:45;95770.22;;;23.81
40047;BMP280;31510;48.122;11.576;2022-08-01T08:38:10;95766.47;;;23.84
40047;BMP280;31510;48.122;11.576;2022-08-01T08:40:36;95764.69;;;23.86
40047;BMP280;31510;48.122;11.576;2022-08-01T08:43:03;95767.09;;;23.90
40047;BMP280;31510;48.122;11.576;2022-08-01T08:45:29;95764.59;;;23.92
40047;BMP280;31510;48.122;11.576;2022-08-01T08:47:55;95756.13;;;23.95
40047;BMP280;31510;48.122;11.576;2022-08-01T08:50:22;95757.78;;;23.98
40047;BMP280;31510;48.122;11.576;2022-08-01T08:52:47;95762.38;;;24.03
40047;BMP280;31510;48.122;11.576;2022-08-01T08:55:15;95756.44;;;24.05
40047;BMP280;31510;48.122;11.576;2022-08-01T08:57:43;95757.56;;;24.09
40047;BMP280;31510;48.122;11.576;2022-08-01T09:00:10;95756.53;;;24.12
40047;BMP280;31510;48.122;11.576;2022-08-01T09:02:40;95761.66;;;24.15
40047;BMP280;31510;48.122;11.576;2022-08-01T09:05:06;95761.97;;;24.25
40047;BMP280;31510;48.122;11.576;2022-08-01T09:07:32;95748.56;;;24.27
40047;BMP280;31510;48.122;11.576;2022-08-01T09:09:57;95756.44;;;24.30
40047;BMP280;31510;48.122;11.576;2022-08-01T09:12:22;95752.13;;;24.35
40047;BMP280;31510;48.122;11.576;2022-08-01T09:14:48;95751.81;;;24.38
40047;BMP280;31510;48.122;11.576;2022-08-01T09:17:15;95757.88;;;24.44
40047;BMP280;31510;48.122;11.576;2022-08-01T09:19:46;95754.09;;;24.47
40047;BMP280;31510;48.122;11.576;2022-08-01T09:22:15;95753.28;;;24.52
40047;BMP280;31510;48.122;11.576;2022-08-01T09:24:57;95761.13;;;24.55
40047;BMP280;31510;48.122;11.576;2022-08-01T09:27:22;95747.69;;;24.57
40047;BMP280;31510;48.122;11.576;2022-08-01T09:29:51;95746.97;;;24.57
40047;BMP280;31510;48.122;11.576;2022-08-01T09:32:16;95759.66;;;24.54
40047;BMP280;31510;48.122;11.576;2022-08-01T09:34:42;95756.41;;;24.56
40047;BMP280;31510;48.122;11.576;2022-08-01T09:37:07;95753.56;;;24.61
40047;BMP280;31510;48.122;11.576;2022-08-01T09:39:35;95751.03;;;24.63
40047;BMP280;31510;48.122;11.576;2022-08-01T09:42:19;95745.69;;;24.71
40047;BMP280;31510;48.122;11.576;2022-08-01T09:44:45;95736.53;;;24.81
40047;BMP280;31510;48.122;11.576;2022-08-01T09:47:11;95741.53;;;24.90
40047;BMP280;31510;48.122;11.576;2022-08-01T09:49:38;95743.41;;;24.95
40047;BMP280;31510;48.122;11.576;2022-08-01T09:52:15;95743.09;;;24.98
40047;BMP280;31510;48.122;11.576;2022-08-01T09:54:43;95739.09;;;24.99
40047;BMP280;31510;48.122;11.576;2022-08-01T09:57:16;95726.91;;;25.00
40047;BMP280;31510;48.122;11.576;2022-08-01T09:59:45;95740.56;;;25.00
40047;BMP280;31510;48.122;11.576;2022-08-01T10:02:13;95743.09;;;24.98
40047;BMP280;31510;48.122;11.576;2022-08-01T10:04:50;95735.66;;;24.99
40047;BMP280;31510;48.122;11.576;2022-08-01T10:07:17;95732.72;;;24.97
40047;BMP280;31510;48.122;11.576;2022-08-01T10:09:43;95732.72;;;24.97
40047;BMP280;31510;48.122;11.576;2022-08-01T10:12:10;95733.13;;;25.01
40047;BMP280;31510;48.122;11.576;2022-08-01T10:14:37;95728.25;;;25.07
40047;BMP280;31510;48.122;11.576;2022-08-01T10:17:05;95721.97;;;25.12
40047;BMP280;31510;48.122;11.576;2022-08-01T10:19:31;95723.81;;;25.17
40047;BMP280;31510;48.122;11.576;2022-08-01T10:21:58;95719.09;;;25.17
40047;BMP280;31510;48.122;11.576;2022-08-01T10:24:26;95727.59;;;25.14
40047;BMP280;31510;48.122;11.576;2022-08-01T10:26:55;95719.41;;;25.14
40047;BMP280;31510;48.122;11.576;2022-08-01T10:29:24;95720.00;;;25.20
40047;BMP280;31510;48.122;11.576;2022-08-01T10:31:50;95717.38;;;25.27
40047;BMP280;31510;48.122;11.576;2022-08-01T10:34:16;95713.97;;;25.34
40047;BMP280;31510;48.122;11.576;2022-08-01T10:36:47;95719.09;;;25.37
40047;BMP280;31510;48.122;11.576;2022-08-01T10:39:12;95709.50;;;25.44
40047;BMP280;31510;48.122;11.576;2022-08-01T10:41:39;95716.09;;;25.48
40047;BMP280;31510;48.122;11.576;2022-08-01T10:44:07;95719.88;;;25.45
40047;BMP280;31510;48.122;11.576;2022-08-01T10:46:34;95707.50;;;25.44
40047;BMP280;31510;48.122;11.576;2022-08-01T10:49:10;95695.47;;;25.40
40047;BMP280;31510;48.122;11.576;2022-08-01T10:51:37;95702.91;;;25.39
40047;BMP280;31510;48.122;11.576;2022-08-01T10:54:05;95718.00;;;25.40
40047;BMP280;31510;48.122;11.576;2022-08-01T10:56:47;95711.09;;;25.39
40047;BMP280;31510;48.122;11.576;2022-08-01T10:59:24;95697.78;;;25.36
40047;BMP280;31510;48.122;11.576;2022-08-01T11:02:01;95704.50;;;25.35
40047;BMP280;31510;48.122;11.576;2022-08-01T11:07:16;95692.19;;;25.41
40047;BMP280;31510;48.122;11.576;2022-08-01T11:09:44;95701.50;;;25.46
40047;BMP280;31510;48.122;11.576;2022-08-01T11:12:12;95680.59;;;25.48
40047;BMP280;31510;48.122;11.576;2022-08-01T11:25:24;95683.06;;;25.59
40047;BMP280;31510;48.122;11.576;2022-08-01T11:30:53;95682.47;;;25.53
40047;BMP280;31510;48.122;11.576;2022-08-01T11:36:23;95675.06;;;25.61
40047;BMP280;31510;48.122;11.576;2022-08-01T11:41:36;95679.06;;;25.88
40047;BMP280;31510;48.122;11.576;2022-08-01T11:46:53;95674.75;;;26.00
40047;BMP280;31510;48.122;11.576;2022-08-01T11:52:10;95663.34;;;26.08
40047;BMP280;31510;48.122;11.576;2022-08-01T11:57:11;95670.69;;;26.21
40047;BMP280;31510;48.122;11.576;2022-08-01T11:59:43;95657.59;;;26.27
40047;BMP280;31510;48.122;11.576;2022-08-01T12:02:31;95666.06;;;26.44
40047;BMP280;31510;48.122;11.576;2022-08-01T12:04:58;95668.28;;;26.52
40047;BMP280;31510;48.122;11.576;2022-08-01T12:07:25;95664.47;;;26.55
40047;BMP280;31510;48.122;11.576;2022-08-01T12:10:02;95658.09;;;26.60
40047;BMP280;31510;48.122;11.576;2022-08-01T12:12:29;95659.56;;;26.69
40047;BMP280;31510;48.122;11.576;2022-08-01T12:15:00;95655.03;;;26.79
40047;BMP280;31510;48.122;11.576;2022-08-01T12:17:46;95659.09;;;26.85
40047;BMP280;31510;48.122;11.576;2022-08-01T12:20:19;95646.31;;;26.88
40047;BMP280;31510;48.122;11.576;2022-08-01T12:22:45;95654.34;;;26.86
40047;BMP280;31510;48.122;11.576;2022-08-01T12:25:13;95647.41;;;26.85
40047;BMP280;31510;48.122;11.576;2022-08-01T12:27:40;95641.22;;;26.91
40047;BMP280;31510;48.122;11.576;2022-08-01T12:30:11;95635.00;;;27.06
40047;BMP280;31510;48.122;11.576;2022-08-01T12:32:39;95643.44;;;27.15
40047;BMP280;31510;48.122;11.576;2022-08-01T12:35:05;95640.16;;;27.24
40047;BMP280;31510;48.122;11.576;2022-08-01T12:37:38;95638.50;;;27.29
40047;BMP280;31510;48.122;11.576;2022-08-01T12:40:13;95624.81;;;27.29
40047;BMP280;31510;48.122;11.576;2022-08-01T12:42:40;95628.81;;;27.35
40047;BMP280;31510;48.122;11.576;2022-08-01T12:45:11;95633.22;;;27.53
40047;BMP280;31510;48.122;11.576;2022-08-01T12:47:38;95626.25;;;27.67
40047;BMP280;31510;48.122;11.576;2022-08-01T12:50:24;95624.38;;;27.84
40047;BMP280;31510;48.122;11.576;2022-08-01T12:52:50;95621.81;;;27.86
40047;BMP280;31510;48.122;11.576;2022-08-01T12:57:44;95619.09;;;27.78
40047;BMP280;31510;48.122;11.576;2022-08-01T13:00:11;95616.34;;;27.86
40047;BMP280;31510;48.122;11.576;2022-08-01T13:02:38;95617.81;;;27.87
40047;BMP280;31510;48.122;11.576;2022-08-01T13:05:04;95609.59;;;27.79
40047;BMP280;31510;48.122;11.576;2022-08-01T13:07:38;95613.84;;;27.66
40047;BMP280;31510;48.122;11.576;2022-08-01T13:10:04;95612.03;;;27.53
40047;BMP280;31510;48.122;11.576;2022-08-01T13:12:30;95608.19;;;27.41
40047;BMP280;31510;48.122;11.576;2022-08-01T13:14:55;95610.75;;;27.32
40047;BMP280;31510;48.122;11.576;2022-08-01T13:17:33;95609.13;;;27.29
40047;BMP280;31510;48.122;11.576;2022-08-01T13:20:04;95614.22;;;27.25
40047;BMP280;31510;48.122;11.576;2022-08-01T13:22:34;95619.69;;;27.18
40047;BMP280;31510;48.122;11.576;2022-08-01T13:25:29;95619.34;;;26.99
40047;BMP280;31510;48.122;11.576;2022-08-01T13:28:23;95622.75;;;26.77
40047;BMP280;31510;48.122;11.576;2022-08-01T13:31:15;95621.25;;;26.47
40047;BMP280;31510;48.122;11.576;2022-08-01T13:33:47;95620.63;;;26.26
40047;BMP280;31510;48.122;11.576;2022-08-01T13:36:13;95622.16;;;26.07
40047;BMP280;31510;48.122;11.576;2022-08-01T13:38:40;95615.16;;;25.91
40047;BMP280;31510;48.122;11.576;2022-08-01T13:41:25;95621.31;;;25.84
40047;BMP280;31510;48.122;11.576;2022-08-01T13:43:51;95620.97;;;25.87
40047;BMP280;31510;48.122;11.576;2022-08-01T13:46:17;95626.28;;;25.93
40047;BMP280;31510;48.122;11.576;2022-08-01T13:48:43;95618.81;;;25.93
40047;BMP280;31510;48.122;11.576;2022-08-01T13:51:08;95624.44;;;25.88
40047;BMP280;31510;48.122;11.576;2022-08-01T13:53:34;95622.41;;;25.81
40047;BMP280;31510;48.122;11.576;2022-08-01T13:56:00;95634.00;;;25.74
40047;BMP280;31510;48.122;11.576;2022-08-01T13:58:26;95633.97;;;25.67
40047;BMP280;31510;48.122;11.576;2022-08-01T14:00:53;95633.41;;;25.61
40047;BMP280;31510;48.122;11.576;2022-08-01T14:03:18;95634.78;;;25.54
40047;BMP280;31510;48.122;11.576;2022-08-01T14:05:45;95634.59;;;25.52
40047;BMP280;31510;48.122;11.576;2022-08-01T14:08:11;95634.91;;;25.49
40047;BMP280;31510;48.122;11.576;2022-08-01T14:10:36;95633.66;;;25.50
40047;BMP280;31510;48.122;11.576;2022-08-01T14:13:01;95644.03;;;25.51
40047;BMP280;31510;48.122;11.576;2022-08-01T14:15:27;95642.59;;;25.50
40047;BMP280;31510;48.122;11.576;2022-08-01T14:17:52;95656.22;;;25.50
40047;BMP280;31510;48.122;11.576;2022-08-01T14:20:18;95653.13;;;25.46
40047;BMP280;31510;48.122;11.576;2022-08-01T14:22:47;95654.31;;;25.38
40047;BMP280;31510;48.122;11.576;2022-08-01T14:25:13;95654.19;;;25.23
40047;BMP280;31510;48.122;11.576;2022-08-01T14:27:38;95652.34;;;24.98
40047;BMP280;31510;48.122;11.576;2022-08-01T14:30:07;95643.06;;;24.81
40047;BMP280;31510;48.122;11.576;2022-08-01T14:32:33;95648.59;;;24.68
40047;BMP280;31510;48.122;11.576;2022-08-01T14:35:02;95651.03;;;24.58
40047;BMP280;31510;48.122;11.576;2022-08-01T14:37:27;95656.81;;;24.55
40047;BMP280;31510;48.122;11.576;2022-08-01T14:39:54;95660.59;;;24.52
40047;BMP280;31510;48.122;11.576;2022-08-01T14:42:19;95662.78;;;24.53
40047;BMP280;31510;48.122;11.576;2022-08-01T14:44:45;95662.28;;;24.55